Time;durP1;ratioP1;P1;durP2;ratioP2;P2;SDS_P1;SDS_P2;PMS_P1;PMS_P2;Temp;Humidity;BMP_temperature;BMP_pressure;BME280_temperature;BME280_humidity;BME280_pressure;Samples;Min_cycle;Max_cycle;Signal;HPM_P1;HPM_P2
2022/12/17 13:06:53;;;;;;;48.05;19.83;;;;;;;-0.29;93.94;102658.84;6250585;22;20016;-74
2022/12/17 13:09:32;;;;;;;43.60;18.63;;;;;;;-0.40;93.60;102667.06;6250972;22;20024;-75
2022/12/17 13:12:03;;;;;;;45.03;19.27;;;;;;;-0.44;93.73;102663.56;6251029;22;20028;-74
2022/12/17 13:14:35;;;;;;;59.35;21.73;;;;;;;-0.43;93.36;102653.88;6250266;22;20017;-75
2022/12/17 13:17:26;;;;;;;44.72;19.23;;;;;;;-0.50;93.82;102651.75;6249190;22;20382;-75
2022/12/17 13:19:55;;;;;;;51.47;19.70;;;;;;;-0.56;93.66;102655.63;6249115;22;20021;-76
2022/12/17 13:22:22;;;;;;;49.00;20.38;;;;;;;-0.49;93.69;102647.28;6248979;22;20012;-75
2022/12/17 13:24:52;;;;;;;51.95;20.33;;;;;;;-0.44;93.42;102655.72;6248627;22;20469;-75
2022/12/17 13:27:32;;;;;;;49.25;20.15;;;;;;;-0.49;93.17;102647.28;6222159;22;20044;-75
2022/12/17 13:30:17;;;;;;;46.72;18.80;;;;;;;-0.46;93.55;102654.50;6248566;22;20021;-75
2022/12/17 13:33:09;;;;;;;54.45;22.58;;;;;;;-0.41;93.06;102652.47;6223388;22;20067;-75
2022/12/17 13:35:54;;;;;;;50.88;20.33;;;;;;;-0.45;93.07;102635.88;6250420;22;20403;-74
2022/12/17 13:38:29;;;;;;;46.65;19.45;;;;;;;-0.47;93.21;102658.97;6250531;22;20028;-75
2022/12/17 13:41:14;;;;;;;47.45;19.13;;;;;;;-0.43;92.99;102656.50;6250822;22;20050;-75
2022/12/17 13:43:47;;;;;;;39.95;15.15;;;;;;;-0.49;92.98;102653.28;6250467;22;20063;-74
2022/12/17 13:46:18;;;;;;;43.53;19.08;;;;;;;-0.55;93.22;102659.03;6198141;22;20017;-74
2022/12/17 13:48:55;;;;;;;52.35;21.20;;;;;;;-0.61;93.18;102653.19;6223078;22;20016;-74
2022/12/17 13:51:22;;;;;;;47.17;20.63;;;;;;;-0.62;93.59;102654.28;6250675;22;20017;-75
2022/12/17 13:53:55;;;;;;;47.15;18.30;;;;;;;-0.61;93.28;102644.59;6250181;22;20044;-76
2022/12/17 13:56:28;;;;;;;46.78;20.40;;;;;;;-0.64;93.34;102643.38;6250824;22;20020;-75
2022/12/17 13:58:56;;;;;;;52.22;20.60;;;;;;;-0.60;93.72;102639.03;6249813;22;20101;-75
2022/12/17 14:01:28;;;;;;;47.45;20.73;;;;;;;-0.61;93.13;102639.34;6250376;22;20035;-75
2022/12/17 14:04:00;;;;;;;52.00;20.73;;;;;;;-0.66;93.31;102645.53;6223853;22;20016;-75
2022/12/17 14:06:37;;;;;;;47.00;22.23;;;;;;;-0.67;93.49;102649.22;6250440;22;20454;-74
2022/12/17 14:09:04;;;;;;;50.47;21.70;;;;;;;-0.67;93.28;102652.59;6250390;22;20013;-74
2022/12/17 14:14:33;;;;;;;57.33;23.42;;;;;;;-0.69;93.75;102646.16;6249819;22;20457;-74
2022/12/17 14:17:00;;;;;;;49.05;18.17;;;;;;;-0.70;93.58;102647.25;6250660;22;20021;-74
2022/12/17 14:19:29;;;;;;;47.55;20.83;;;;;;;-0.76;93.42;102648.50;6222445;22;20063;-74
2022/12/17 14:21:56;;;;;;;56.88;23.50;;;;;;;-0.77;93.59;102652.19;6250547;22;20418;-74
2022/12/17 14:24:26;;;;;;;51.15;20.05;;;;;;;-0.80;93.53;102656.19;6250369;22;20398;-75
2022/12/17 14:26:55;;;;;;;45.75;20.38;;;;;;;-0.83;94.09;102661.31;6250748;22;20067;-74
2022/12/17 14:29:31;;;;;;;48.35;21.27;;;;;;;-0.89;93.89;102665.19;6250031;22;20044;-74
2022/12/17 14:32:00;;;;;;;48.72;20.55;;;;;;;-0.93;94.06;102674.75;6223946;22;20072;-74
2022/12/17 14:34:38;;;;;;;50.00;20.23;;;;;;;-0.96;93.73;102681.34;6250064;22;20013;-74
2022/12/17 14:37:16;;;;;;;50.85;21.02;;;;;;;-0.98;94.03;102680.13;6250557;22;20017;-74
2022/12/17 14:39:45;;;;;;;50.60;19.77;;;;;;;-0.97;93.80;102673.81;6249734;22;20435;-74
2022/12/17 14:42:24;;;;;;;49.22;20.55;;;;;;;-0.96;93.75;102681.34;6250276;22;20053;-74
2022/12/17 14:44:55;;;;;;;42.70;17.75;;;;;;;-1.00;94.04;102680.44;6223745;22;20012;-76
2022/12/17 14:47:33;;;;;;;47.53;20.42;;;;;;;-1.07;93.84;102680.16;6250372;22;20443;-76
2022/12/17 14:50:10;;;;;;;49.38;21.30;;;;;;;-1.08;93.97;102682.00;6250245;22;20019;-76
2022/12/17 14:52:44;;;;;;;46.05;18.48;;;;;;;-1.14;94.20;102680.63;6250183;22;20016;-76
2022/12/17 14:55:27;;;;;;;48.53;19.73;;;;;;;-1.13;94.39;102679.56;6250319;22;20013;-76
2022/12/17 14:58:07;;;;;;;36.15;18.05;;;;;;;-1.15;94.25;102684.31;6249583;22;20095;-76
2022/12/17 15:00:37;;;;;;;50.28;19.15;;;;;;;-1.20;94.36;102679.25;6250313;22;20020;-76
2022/12/17 15:03:03;;;;;;;39.70;18.77;;;;;;;-1.22;94.19;102686.69;6223202;22;20962;-76
2022/12/17 15:05:31;;;;;;;51.85;22.50;;;;;;;-1.24;94.29;102682.84;6249945;22;20017;-76
2022/12/17 15:07:57;;;;;;;49.72;21.00;;;;;;;-1.27;94.51;102681.59;6250390;22;20481;-76
2022/12/17 15:10:24;;;;;;;47.33;18.85;;;;;;;-1.28;94.86;102684.53;6249155;22;20068;-74
2022/12/17 15:12:52;;;;;;;48.17;19.52;;;;;;;-1.27;94.88;102676.38;6249060;22;20459;-74
2022/12/17 15:15:20;;;;;;;53.08;21.10;;;;;;;-1.26;94.72;102675.31;6249786;22;20351;-78
2022/12/17 15:17:47;;;;;;;51.88;20.35;;;;;;;-1.23;94.99;102687.75;6197460;22;20520;-76
2022/12/17 15:20:18;;;;;;;45.17;19.92;;;;;;;-1.28;94.76;102690.53;6249822;22;20442;-78
2022/12/17 15:22:45;;;;;;;48.45;20.90;;;;;;;-1.28;94.92;102695.75;6249935;22;20023;-76
2022/12/17 15:25:14;;;;;;;45.80;19.52;;;;;;;-1.33;95.05;102703.75;6222972;22;20140;-74
2022/12/17 15:27:41;;;;;;;42.97;18.52;;;;;;;-1.37;95.21;102698.38;6249046;22;20488;-75
2022/12/17 15:30:16;;;;;;;53.58;22.25;;;;;;;-1.39;94.68;102702.38;6250217;22;20454;-75
2022/12/17 15:32:43;;;;;;;46.15;20.98;;;;;;;-1.39;95.26;102705.75;6249665;22;20402;-75
2022/12/17 15:35:11;;;;;;;44.42;20.40;;;;;;;-1.40;95.28;102711.28;6222658;22;20013;-75
2022/12/17 15:37:37;;;;;;;33.47;16.40;;;;;;;-1.42;95.14;102711.59;6249576;22;20024;-77
2022/12/17 15:40:05;;;;;;;52.05;21.08;;;;;;;-1.45;94.86;102714.06;6249685;22;20096;-75
2022/12/17 15:45:16;;;;;;;43.00;18.27;;;;;;;-1.59;95.24;102729.88;6250119;22;20084;-76
2022/12/17 15:47:43;;;;;;;51.97;21.52;;;;;;;-1.57;95.50;102726.97;6249511;22;20443;-78
2022/12/17 15:50:09;;;;;;;42.67;17.05;;;;;;;-1.55;95.37;102730.81;6249525;22;20017;-76
2022/12/17 15:52:36;;;;;;;48.10;19.73;;;;;;;-1.56;95.44;102733.72;6249539;22;20438;-77
2022/12/17 15:55:03;;;;;;;50.22;20.33;;;;;;;-1.56;95.21;102734.50;6249235;22;20013;-75
2022/12/17 15:57:29;;;;;;;42.13;15.45;;;;;;;-1.58;95.13;102738.50;6221607;22;20467;-76
2022/12/17 15:59:56;;;;;;;52.65;19.98;;;;;;;-1.61;95.14;102733.91;6222967;22;20013;-76
2022/12/17 16:02:22;;;;;;;47.15;19.23;;;;;;;-1.62;95.52;102738.34;6249822;22;20012;-76
2022/12/17 16:04:49;;;;;;;51.75;19.88;;;;;;;-1.65;95.18;102733.75;6249394;22;20017;-74
2022/12/17 16:07:15;;;;;;;52.75;19.45;;;;;;;-1.64;95.56;102729.28;6249583;22;20047;-78
2022/12/17 16:09:42;;;;;;;47.28;17.65;;;;;;;-1.65;95.79;102722.53;6248622;22;20469;-77
2022/12/17 16:12:08;;;;;;;53.85;22.10;;;;;;;-1.66;95.73;102729.59;6249308;22;20048;-79
2022/12/17 16:14:34;;;;;;;41.92;17.23;;;;;;;-1.67;95.52;102735.91;6248893;22;20040;-76
2022/12/17 16:17:01;;;;;;;53.92;20.20;;;;;;;-1.66;95.99;102752.34;6249767;22;20071;-76
2022/12/17 16:19:28;;;;;;;56.15;20.33;;;;;;;-1.64;95.86;102750.19;6249157;22;20017;-79
2022/12/17 16:21:55;;;;;;;41.83;18.38;;;;;;;-1.65;95.64;102753.88;6222699;22;20303;-76
2022/12/17 16:24:21;;;;;;;52.33;21.10;;;;;;;-1.64;95.60;102752.78;6250314;22;20063;-76
2022/12/17 16:26:48;;;;;;;44.55;16.58;;;;;;;-1.66;95.51;102750.50;6250585;22;20071;-75
2022/12/17 16:29:14;;;;;;;50.20;18.88;;;;;;;-1.70;95.47;102752.94;6223901;22;20021;-78
2022/12/17 16:31:41;;;;;;;47.60;19.92;;;;;;;-1.72;95.70;102744.66;6250536;22;20013;-78
2022/12/17 16:34:09;;;;;;;50.22;21.23;;;;;;;-1.69;95.57;102751.88;6223488;22;20021;-75
2022/12/17 16:36:36;;;;;;;39.67;17.45;;;;;;;-1.77;95.32;102744.78;6223649;22;20017;-77
2022/12/17 16:39:04;;;;;;;39.85;18.15;;;;;;;-1.82;95.55;102746.78;6250332;22;20075;-77
2022/12/17 16:41:31;;;;;;;46.92;19.23;;;;;;;-1.84;95.61;102752.31;6250638;22;20013;-78
2022/12/17 16:43:58;;;;;;;35.85;15.75;;;;;;;-1.86;95.23;102756.28;6250594;22;20031;-77
2022/12/17 16:46:31;;;;;;;45.58;16.27;;;;;;;-1.90;95.57;102757.97;6250879;22;20044;-78
2022/12/17 16:49:03;;;;;;;51.20;20.23;;;;;;;-1.88;95.85;102769.66;6250723;22;20013;-76
2022/12/17 16:51:30;;;;;;;48.63;19.08;;;;;;;-1.87;95.83;102758.13;6250610;22;20459;-78
2022/12/17 16:53:58;;;;;;;48.88;19.52;;;;;;;-1.85;95.70;102753.38;6249843;22;20016;-77
2022/12/17 16:56:26;;;;;;;55.70;22.13;;;;;;;-1.80;95.57;102752.47;6250830;22;20017;-79
2022/12/17 16:58:54;;;;;;;53.40;20.55;;;;;;;-1.77;95.94;102757.06;6223622;22;20460;-77
2022/12/17 17:01:24;;;;;;;51.22;19.88;;;;;;;-1.75;95.77;102762.78;6250251;22;20092;-76
2022/12/17 17:03:50;;;;;;;51.83;22.02;;;;;;;-1.75;95.47;102754.94;6250528;22;20358;-79
2022/12/17 17:06:18;;;;;;;48.00;19.20;;;;;;;-1.74;95.59;102754.63;6250715;22;20021;-78
2022/12/17 17:08:45;;;;;;;48.15;19.25;;;;;;;-1.79;95.64;102748.78;6250059;22;20044;-78
2022/12/17 17:11:14;;;;;;;44.42;19.23;;;;;;;-1.81;95.92;102762.16;6250797;22;20024;-79
2022/12/17 17:13:41;;;;;;;38.92;16.77;;;;;;;-1.80;95.81;102755.06;6251865;22;20473;-79
2022/12/17 17:16:09;;;;;;;49.17;20.02;;;;;;;-1.84;96.07;102759.38;6250074;22;20422;-75
2022/12/17 17:18:35;;;;;;;54.22;21.20;;;;;;;-1.82;95.83;102755.38;6250256;22;20017;-78
2022/12/17 17:21:12;;;;;;;41.85;18.08;;;;;;;-1.78;95.57;102756.31;6250687;22;20024;-78
2022/12/17 17:23:39;;;;;;;52.25;19.02;;;;;;;-1.83;95.94;102755.69;6249648;22;20052;-77
2022/12/17 17:26:06;;;;;;;52.47;20.00;;;;;;;-1.82;95.82;102765.06;6223553;22;20091;-76
2022/12/17 17:28:32;;;;;;;50.60;19.48;;;;;;;-1.80;96.24;102771.50;6250130;22;20016;-76
2022/12/17 17:31:05;;;;;;;45.95;20.92;;;;;;;-1.77;96.14;102770.91;6250634;22;20017;-76
2022/12/17 17:33:34;;;;;;;31.35;14.45;;;;;;;-1.87;95.39;102768.59;6223134;22;20021;-76
2022/12/17 17:36:13;;;;;;;45.50;17.42;;;;;;;-1.91;95.34;102764.28;6250818;22;20040;-76
2022/12/17 17:38:40;;;;;;;45.42;17.90;;;;;;;-1.98;95.49;102772.53;6250543;22;20022;-75
2022/12/17 17:41:10;;;;;;;45.40;19.08;;;;;;;-1.98;95.67;102756.13;6250880;22;20068;-75
2022/12/17 17:43:36;;;;;;;43.13;18.13;;;;;;;-1.99;95.64;102760.56;6250111;22;20079;-75
2022/12/17 17:46:07;;;;;;;34.33;12.85;;;;;;;-2.04;95.54;102760.72;6250649;22;20021;-75
2022/12/17 17:48:34;;;;;;;46.72;16.92;;;;;;;-2.15;95.43;102759.47;6250512;22;20023;-75
2022/12/17 17:51:05;;;;;;;52.10;18.45;;;;;;;-2.17;95.99;102762.38;6250186;22;20431;-75
2022/12/17 17:53:31;;;;;;;49.45;19.05;;;;;;;-2.15;96.10;102769.91;6250338;22;20055;-75
2022/12/17 17:56:06;;;;;;;37.53;14.43;;;;;;;-2.12;95.81;102770.06;6223403;22;20024;-76
2022/12/17 17:58:33;;;;;;;38.08;15.13;;;;;;;-2.20;95.73;102770.81;6249800;22;20473;-75
2022/12/17 18:01:07;;;;;;;48.25;17.55;;;;;;;-2.24;95.88;102772.50;6250837;22;20411;-75
2022/12/17 18:03:33;;;;;;;41.92;16.65;;;;;;;-2.20;96.29;102783.84;6250338;22;20017;-75
2022/12/17 18:06:02;;;;;;;45.28;18.00;;;;;;;-2.20;96.52;102772.66;6250161;22;20020;-75
2022/12/17 18:08:33;;;;;;;42.63;16.20;;;;;;;-2.21;96.58;102776.34;6250088;22;20040;-75
2022/12/17 18:11:02;;;;;;;47.85;19.83;;;;;;;-2.20;96.62;102777.88;6250620;22;20017;-75
2022/12/17 18:16:14;;;;;;;47.65;18.60;;;;;;;-2.15;96.22;102790.78;6221735;22;20040;-76
2022/12/17 18:18:41;;;;;;;49.40;18.23;;;;;;;-2.16;96.62;102784.78;6248275;22;20035;-75
2022/12/17 18:21:11;;;;;;;52.55;18.52;;;;;;;-2.12;96.44;102795.41;6248465;22;20021;-75
2022/12/17 18:23:39;;;;;;;54.60;20.23;;;;;;;-2.11;96.81;102799.56;6248622;22;20138;-75
2022/12/17 18:26:12;;;;;;;43.22;17.85;;;;;;;-2.13;96.69;102802.47;6249064;22;20473;-76
2022/12/17 18:28:41;;;;;;;49.55;18.52;;;;;;;-2.15;97.01;102806.44;6248351;22;20023;-75
2022/12/17 18:31:10;;;;;;;40.88;17.48;;;;;;;-2.17;96.63;102808.59;6248867;22;20012;-75
2022/12/17 18:33:40;;;;;;;48.38;19.30;;;;;;;-2.24;96.84;102800.41;6221682;22;20035;-75
2022/12/17 18:36:08;;;;;;;43.75;17.38;;;;;;;-2.25;97.15;102797.03;6249859;22;20024;-75
2022/12/17 18:38:35;;;;;;;43.88;18.67;;;;;;;-2.25;97.05;102797.03;6249969;22;20469;-76
2022/12/17 18:43:59;;;;;;;46.95;17.40;;;;;;;-2.29;96.82;102784.91;6250553;22;20509;-78
2022/12/17 18:46:29;;;;;;;40.58;16.63;;;;;;;-2.32;97.10;102786.25;6249579;22;20024;-76
2022/12/17 18:49:02;;;;;;;48.78;19.20;;;;;;;-2.30;97.19;102791.19;6222771;22;20470;-76
2022/12/17 18:51:28;;;;;;;36.53;14.90;;;;;;;-2.31;97.06;102800.84;6250459;22;20023;-76
2022/12/17 18:53:56;;;;;;;40.50;16.27;;;;;;;-2.32;97.43;102793.31;6250692;22;20040;-76
2022/12/17 18:56:23;;;;;;;51.17;18.33;;;;;;;-2.33;97.66;102791.78;6250541;22;20020;-77
2022/12/17 18:59:14;;;;;;;43.05;18.00;;;;;;;-2.33;97.40;102797.78;6250732;22;20343;-76
2022/12/17 19:01:42;;;;;;;53.10;19.38;;;;;;;-2.33;97.85;102800.38;6250256;22;20544;-76
2022/12/17 19:04:12;;;;;;;51.78;18.75;;;;;;;-2.32;97.73;102801.16;6249856;22;20047;-76
2022/12/17 19:06:39;;;;;;;51.10;16.70;;;;;;;-2.33;97.39;102804.81;6250151;22;20016;-75
2022/12/17 19:09:07;;;;;;;49.42;17.33;;;;;;;-2.35;97.76;102807.72;6223035;22;20464;-75
2022/12/17 19:11:34;;;;;;;42.33;16.77;;;;;;;-2.38;97.53;102811.72;6249912;22;20012;-77
2022/12/17 19:14:08;;;;;;;48.55;19.92;;;;;;;-2.40;97.42;102813.84;6250216;22;20013;-76
2022/12/17 19:16:35;;;;;;;49.85;18.65;;;;;;;-2.42;97.95;102810.03;6249920;22;20021;-76
2022/12/17 19:19:04;;;;;;;51.65;18.25;;;;;;;-2.47;97.40;102817.97;6249163;22;20020;-78
2022/12/17 19:21:32;;;;;;;47.70;18.05;;;;;;;-2.49;97.76;102812.28;6222794;22;20017;-78
2022/12/17 19:24:04;;;;;;;41.95;15.85;;;;;;;-2.51;97.82;102814.44;6222907;22;20040;-77
2022/12/17 19:26:31;;;;;;;45.88;16.75;;;;;;;-2.54;97.60;102815.03;6222881;22;20021;-76
2022/12/17 19:28:59;;;;;;;48.50;17.17;;;;;;;-2.58;97.30;102809.63;6250601;22;20017;-76
2022/12/17 19:31:30;;;;;;;47.78;18.92;;;;;;;-2.64;97.15;102820.50;6250502;22;20013;-76
2022/12/17 19:33:58;;;;;;;46.45;17.17;;;;;;;-2.70;97.24;102820.59;6222480;22;20044;-76
2022/12/17 19:36:26;;;;;;;52.00;19.10;;;;;;;-2.74;97.24;102816.28;6223302;22;20478;-76
2022/12/17 19:38:59;;;;;;;46.05;17.95;;;;;;;-2.75;97.58;102817.34;6250278;22;20016;-77
2022/12/17 19:41:27;;;;;;;49.45;19.65;;;;;;;-2.75;97.40;102819.97;6250004;22;20013;-76
2022/12/17 19:43:59;;;;;;;41.38;16.13;;;;;;;-2.74;97.46;102816.28;6223341;22;20013;-76
2022/12/17 19:46:26;;;;;;;50.88;18.92;;;;;;;-2.80;97.58;102817.50;6250672;22;20439;-77
2022/12/17 19:48:53;;;;;;;43.00;16.77;;;;;;;-2.78;97.78;102826.53;6249515;22;20392;-77
2022/12/17 19:51:24;;;;;;;44.70;17.15;;;;;;;-2.77;97.71;102829.91;6222673;22;20023;-79
2022/12/17 19:53:51;;;;;;;39.80;17.20;;;;;;;-2.75;97.40;102827.78;6249748;22;20044;-76
2022/12/17 19:56:26;;;;;;;52.92;18.90;;;;;;;-2.74;97.64;102826.72;6250334;22;20024;-77
2022/12/17 19:58:55;;;;;;;49.35;18.08;;;;;;;-2.72;97.72;102837.63;6251248;22;20354;-77
2022/12/17 20:01:27;;;;;;;48.38;18.80;;;;;;;-2.72;97.74;102829.78;6250499;22;20071;-77
2022/12/17 20:03:54;;;;;;;45.85;16.75;;;;;;;-2.74;97.61;102837.91;6251375;22;20031;-77
2022/12/17 20:06:23;;;;;;;57.58;19.92;;;;;;;-2.76;97.53;102839.28;6251347;22;20024;-77
2022/12/17 20:08:50;;;;;;;53.30;19.90;;;;;;;-2.77;98.15;102846.31;6250830;22;20092;-78
2022/12/17 20:11:32;;;;;;;43.03;18.27;;;;;;;-2.78;97.72;102836.97;6251127;22;20012;-77
2022/12/17 20:14:03;;;;;;;47.47;16.73;;;;;;;-2.80;97.93;102844.31;6251322;22;20358;-78
2022/12/17 20:16:33;;;;;;;56.42;18.40;;;;;;;-2.81;98.11;102849.84;6250097;22;20068;-79
2022/12/17 20:19:01;;;;;;;49.97;20.02;;;;;;;-2.82;98.39;102846.47;6251343;22;20090;-79
2022/12/17 20:21:28;;;;;;;49.47;18.30;;;;;;;-2.86;97.98;102847.34;6250619;22;20084;-78
2022/12/17 20:23:55;;;;;;;40.13;17.52;;;;;;;-2.85;98.61;102851.50;6251156;22;20528;-78
2022/12/17 20:26:22;;;;;;;44.10;17.70;;;;;;;-2.88;98.02;102854.69;6251248;22;20484;-77
2022/12/17 20:28:49;;;;;;;48.25;16.77;;;;;;;-2.95;98.17;102857.72;6251252;22;20478;-78
2022/12/17 20:31:16;;;;;;;48.50;18.02;;;;;;;-3.00;97.84;102863.03;6250976;22;20013;-77
2022/12/17 20:33:43;;;;;;;48.53;18.20;;;;;;;-3.06;97.93;102856.41;6250982;22;20418;-76
2022/12/17 20:36:15;;;;;;;41.03;17.70;;;;;;;-3.12;98.16;102858.34;6251403;22;20446;-76
2022/12/17 20:38:42;;;;;;;42.53;16.58;;;;;;;-3.16;98.24;102857.38;6224341;22;20028;-76
2022/12/17 20:41:11;;;;;;;31.77;13.20;;;;;;;-3.14;98.07;102852.66;6224033;22;20021;-76
2022/12/17 20:43:38;;;;;;;37.22;13.80;;;;;;;-3.18;98.15;102845.72;6250964;22;20032;-76
2022/12/17 20:46:08;;;;;;;49.65;18.70;;;;;;;-3.21;97.92;102844.50;6250769;22;20472;-76
2022/12/17 20:48:36;;;;;;;37.72;14.80;;;;;;;-3.23;98.25;102845.84;6251039;22;20421;-76
2022/12/17 20:51:17;;;;;;;41.25;16.85;;;;;;;-3.26;98.37;102842.00;6251024;22;20017;-76
2022/12/17 20:53:46;;;;;;;29.63;12.88;;;;;;;-3.32;97.59;102845.00;6250847;22;20013;-76
2022/12/17 20:56:15;;;;;;;39.90;16.00;;;;;;;-3.37;98.26;102846.66;6251120;22;20449;-76
2022/12/17 20:58:43;;;;;;;38.05;16.02;;;;;;;-3.39;98.26;102843.56;6251055;22;20036;-77
2022/12/17 21:01:19;;;;;;;41.13;17.60;;;;;;;-3.34;98.45;102840.06;6223973;22;20027;-77
2022/12/17 21:03:48;;;;;;;46.22;18.88;;;;;;;-3.26;98.53;102847.22;6250920;22;20013;-78
2022/12/17 21:06:20;;;;;;;41.80;17.20;;;;;;;-3.25;98.68;102840.94;6251084;22;20064;-77
2022/12/17 21:08:50;;;;;;;41.75;17.50;;;;;;;-3.25;98.55;102843.53;6223554;22;20071;-77
2022/12/17 21:11:20;;;;;;;41.75;18.33;;;;;;;-3.22;98.81;102850.75;6251218;22;20447;-77
2022/12/17 21:13:46;;;;;;;43.90;17.50;;;;;;;-3.26;98.18;102851.66;6223259;22;20071;-77
2022/12/17 21:16:16;;;;;;;44.03;19.05;;;;;;;-3.26;98.48;102864.66;6250925;22;20095;-77
2022/12/17 21:18:46;;;;;;;41.05;15.48;;;;;;;-3.34;97.96;102852.34;6224176;22;20017;-77
2022/12/17 21:21:16;;;;;;;42.72;18.55;;;;;;;-3.41;98.52;102865.75;6250849;22;20020;-77
2022/12/17 21:23:46;;;;;;;39.72;17.10;;;;;;;-3.41;98.82;102850.13;6250893;22;20017;-77
2022/12/17 21:26:23;;;;;;;45.38;16.92;;;;;;;-3.38;98.36;102844.34;6251188;22;20040;-77
2022/12/17 21:28:52;;;;;;;37.30;16.05;;;;;;;-3.41;98.49;102858.72;6250387;22;20021;-78
2022/12/17 21:31:31;;;;;;;49.95;18.13;;;;;;;-3.41;98.46;102863.16;6250968;22;20090;-77
2022/12/17 21:34:01;;;;;;;39.78;16.60;;;;;;;-3.42;98.47;102867.59;6251039;22;20101;-77
2022/12/17 21:36:30;;;;;;;51.97;19.10;;;;;;;-3.38;98.51;102876.34;6250591;22;20029;-77
2022/12/17 21:38:57;;;;;;;41.30;16.73;;;;;;;-3.36;98.99;102873.47;6250985;22;20447;-77
2022/12/17 21:41:26;;;;;;;52.03;18.10;;;;;;;-3.37;98.75;102875.28;6250745;22;20075;-78
2022/12/17 21:43:55;;;;;;;41.00;18.05;;;;;;;-3.36;99.05;102884.66;6250119;22;20047;-77
2022/12/17 21:46:22;;;;;;;32.20;14.80;;;;;;;-3.42;98.63;102878.00;6251155;22;20024;-78
2022/12/17 21:48:49;;;;;;;38.67;15.57;;;;;;;-3.48;98.77;102881.75;6250509;22;20017;-78
2022/12/17 21:51:16;;;;;;;43.25;16.98;;;;;;;-3.50;98.33;102888.31;6250835;22;20051;-78
2022/12/17 21:53:43;;;;;;;42.25;17.13;;;;;;;-3.51;98.43;102884.94;6250128;22;20466;-77
2022/12/17 21:56:13;;;;;;;50.83;18.38;;;;;;;-3.52;98.51;102893.06;6250993;22;20024;-77
2022/12/17 21:58:41;;;;;;;38.67;15.60;;;;;;;-3.53;98.57;102900.09;6250185;22;20088;-77
2022/12/17 22:01:13;;;;;;;40.70;16.63;;;;;;;-3.53;98.94;102902.69;6250956;22;20020;-77
2022/12/17 22:03:45;;;;;;;39.55;16.20;;;;;;;-3.52;98.46;102895.66;6250630;22;20469;-78
2022/12/17 22:06:14;;;;;;;34.28;15.32;;;;;;;-3.50;98.64;102903.94;6250720;22;20051;-78
2022/12/17 22:08:42;;;;;;;44.78;16.38;;;;;;;-3.55;98.27;102904.81;6250520;22;20099;-77
2022/12/17 22:11:16;;;;;;;43.60;15.80;;;;;;;-3.59;98.29;102903.06;6250990;22;20019;-77
2022/12/17 22:16:41;;;;;;;35.85;14.38;;;;;;;-3.63;98.32;102918.53;6250049;22;20021;-77
2022/12/17 22:19:09;;;;;;;33.75;15.23;;;;;;;-3.62;98.58;102917.47;6198691;22;20414;-77
2022/12/17 22:21:39;;;;;;;34.25;14.98;;;;;;;-3.60;98.32;102919.78;6250209;22;20017;-77
2022/12/17 22:24:06;;;;;;;35.80;15.50;;;;;;;-3.64;98.11;102919.59;6250605;22;20064;-76
2022/12/17 22:26:32;;;;;;;44.75;17.38;;;;;;;-3.66;98.29;102913.91;6249981;22;20450;-77
2022/12/17 22:28:59;;;;;;;37.25;16.05;;;;;;;-3.66;97.85;102915.75;6251002;22;20013;-76
2022/12/17 22:34:12;;;;;;;32.17;13.65;;;;;;;-3.74;98.04;102906.75;6250850;22;20350;-78
2022/12/17 22:36:58;;;;;;;30.38;14.88;;;;;;;-3.73;98.13;102909.06;6251005;22;20032;-78
2022/12/17 22:39:45;;;;;;;37.25;15.40;;;;;;;-3.70;97.92;102912.94;6250325;22;20017;-77
2022/12/17 22:45:38;;;;;;;32.72;13.52;;;;;;;-3.76;97.70;102911.47;6251397;22;20044;-77
2022/12/17 22:48:06;;;;;;;29.00;11.90;;;;;;;-3.77;97.85;102909.94;6250653;22;20016;-77
2022/12/17 22:50:33;;;;;;;32.78;15.15;;;;;;;-3.79;97.78;102901.66;6223478;22;20016;-76
2022/12/17 22:53:20;;;;;;;24.80;13.32;;;;;;;-3.88;97.51;102895.56;6249868;22;20024;-76
2022/12/17 22:55:48;;;;;;;36.92;14.57;;;;;;;-3.97;97.97;102882.44;6248550;22;20012;-75
2022/12/17 22:58:15;;;;;;;20.80;10.55;;;;;;;-4.01;97.76;102873.69;6249496;22;20446;-76
2022/12/17 23:00:42;;;;;;;26.58;11.95;;;;;;;-4.04;98.19;102893.25;6222230;22;20028;-76
2022/12/17 23:03:08;;;;;;;34.53;14.27;;;;;;;-4.01;98.10;102901.53;6250873;22;20017;-76
2022/12/17 23:05:35;;;;;;;37.13;12.85;;;;;;;-3.98;98.35;102908.75;6250435;22;20394;-76
2022/12/17 23:08:01;;;;;;;31.33;13.57;;;;;;;-3.97;98.35;102915.50;6250795;22;20075;-76
2022/12/17 23:10:28;;;;;;;43.10;16.60;;;;;;;-3.95;98.68;102919.34;6222583;22;20441;-76
2022/12/17 23:12:55;;;;;;;34.80;15.32;;;;;;;-3.89;98.84;102913.00;6250624;22;20017;-76
2022/12/17 23:15:28;;;;;;;32.40;14.90;;;;;;;-3.83;99.01;102909.25;6250012;22;20347;-76
2022/12/17 23:17:58;;;;;;;42.42;16.08;;;;;;;-3.84;98.76;102914.75;6250676;22;20491;-76
2022/12/17 23:20:26;;;;;;;37.22;16.00;;;;;;;-3.84;98.90;102918.13;6250288;22;20051;-76
2022/12/17 23:22:53;;;;;;;47.85;18.10;;;;;;;-3.84;98.88;102914.75;6223463;22;20469;-76
2022/12/17 23:25:20;;;;;;;37.97;15.75;;;;;;;-3.86;98.77;102903.84;6249879;22;20016;-76
2022/12/17 23:27:47;;;;;;;45.55;16.77;;;;;;;-3.86;98.96;102907.22;6222906;22;20521;-76
2022/12/17 23:30:15;;;;;;;45.40;17.77;;;;;;;-3.83;98.92;102901.44;6250374;22;20461;-76
2022/12/17 23:32:42;;;;;;;42.20;17.17;;;;;;;-3.84;99.32;102905.13;6222450;22;20096;-76
2022/12/17 23:35:10;;;;;;;31.17;13.45;;;;;;;-3.85;98.93;102913.97;6250680;22;20077;-77
2022/12/17 23:37:37;;;;;;;37.95;15.98;;;;;;;-3.86;99.05;102914.25;6250333;22;20020;-77
2022/12/17 23:40:12;;;;;;;38.22;15.60;;;;;;;-3.86;99.30;102924.69;6249936;22;20012;-77
2022/12/17 23:42:38;;;;;;;37.53;15.25;;;;;;;-3.90;98.95;102921.88;6250418;22;20017;-76
2022/12/17 23:45:06;;;;;;;37.45;17.05;;;;;;;-3.93;99.37;102911.25;6250622;22;20017;-76
2022/12/17 23:47:33;;;;;;;35.05;13.65;;;;;;;-3.95;99.31;102915.97;6250075;22;20051;-76
2022/12/17 23:49:59;;;;;;;39.95;16.75;;;;;;;-3.94;99.20;102907.13;6250335;22;20091;-76
2022/12/17 23:52:26;;;;;;;39.38;16.45;;;;;;;-3.92;99.13;102899.81;6224427;22;20083;-76
2022/12/17 23:54:53;;;;;;;35.78;14.98;;;;;;;-3.93;99.29;102896.44;6250230;22;20399;-77
2022/12/17 23:57:19;;;;;;;35.33;16.60;;;;;;;-3.95;99.30;102892.56;6250261;22;20044;-77
2022/12/17 23:59:46;;;;;;;41.50;15.88;;;;;;;-3.96;99.28;102891.78;6249970;22;20024;-76
